Terminal Aerodrome Forecast
Issued by NWS Melbourne, FL

Home | Current Version | Previous Version | Text Only | Print | Product List | Glossary On
Versions: 1 2 3 4 5 6 7 8 9 10 11 12 13
000
FTUS42 KMLB 041727
TAFDAB
TAF
KDAB 041727Z 0418/0518 08016G22KT P6SM FEW060 SCT080 BKN150
     FM050000 07009KT P6SM SCT040 SCT250
     FM051400 07013G19KT P6SM VCSH SCT040 BKN150=

USA.gov is the U.S. government's official web portal to all federal, state and local government web resources and services.